Time;durP1;ratioP1;P1;durP2;ratioP2;P2;SDS_P1;SDS_P2;PMS_P1;PMS_P2;Temp;Humidity;BMP_temperature;BMP_pressure;BME280_temperature;BME280_humidity;BME280_pressure;Samples;Min_cycle;Max_cycle;Signal;HPM_P1;HPM_P2
2021/12/05 00:18:46;;;;;;;11.52;3.60;;;;;;;7.17;67.85;99764.44;4973859;28;20106;-58
2021/12/05 00:24:01;;;;;;;11.10;3.90;;;;;;;7.15;68.34;99764.69;4956823;28;20043;-58
2021/12/05 00:26:33;;;;;;;12.25;2.88;;;;;;;7.15;68.01;99769.19;4967796;28;20055;-58
2021/12/05 00:29:25;;;;;;;7.15;2.50;;;;;;;7.13;68.27;99760.59;5017284;28;20081;-59
2021/12/05 00:32:04;;;;;;;8.52;3.22;;;;;;;7.15;68.25;99772.69;5020756;28;20065;-58
2021/12/05 00:40:45;;;;;;;11.43;3.17;;;;;;;7.13;67.80;99773.97;5010675;28;20050;-58
2021/12/05 00:46:28;;;;;;;14.30;3.28;;;;;;;7.11;67.51;99768.84;5040900;28;20090;-59
2021/12/05 00:49:19;;;;;;;13.50;3.78;;;;;;;7.09;67.76;99773.59;5117748;28;20062;-58
2021/12/05 00:52:19;;;;;;;8.18;3.15;;;;;;;7.08;68.11;99771.97;5118542;28;20044;-59
2021/12/05 01:11:42;;;;;;;12.90;3.35;;;;;;;7.03;67.98;99763.00;5117032;28;20050;-57
2021/12/05 01:14:24;;;;;;;7.72;3.17;;;;;;;7.01;67.42;99767.75;5120261;28;20071;-58
2021/12/05 01:16:54;;;;;;;8.55;3.22;;;;;;;6.97;67.68;99761.22;5121031;28;20047;-58
2021/12/05 01:19:23;;;;;;;8.57;3.00;;;;;;;6.98;67.84;99765.53;5121208;28;20079;-57
2021/12/05 01:21:53;;;;;;;9.30;3.38;;;;;;;6.98;67.86;99762.84;5123676;28;20075;-58
2021/12/05 01:24:33;;;;;;;9.73;3.60;;;;;;;6.95;68.00;99766.78;5123630;28;20075;-58
2021/12/05 01:27:08;;;;;;;10.15;3.45;;;;;;;6.93;67.56;99763.56;5124245;28;20051;-58
2021/12/05 01:29:43;;;;;;;11.75;3.47;;;;;;;6.93;67.50;99762.75;5127129;28;20109;-58
2021/12/05 01:32:20;;;;;;;10.43;3.42;;;;;;;6.92;67.71;99767.28;5126773;28;20043;-58
2021/12/05 01:35:03;;;;;;;11.00;3.45;;;;;;;6.93;67.65;99771.56;5125911;28;20054;-58
2021/12/05 01:37:41;;;;;;;9.45;3.50;;;;;;;6.93;67.81;99768.09;5127414;28;20070;-58
2021/12/05 01:40:46;;;;;;;10.77;3.83;;;;;;;6.92;67.26;99769.13;5124943;28;20389;-58
2021/12/05 01:46:39;;;;;;;8.27;2.95;;;;;;;6.90;67.28;99765.88;5062970;28;20048;-58
2021/12/05 01:49:30;;;;;;;11.65;3.40;;;;;;;6.89;67.27;99773.06;5127362;28;20051;-58
2021/12/05 01:52:30;;;;;;;15.15;4.50;;;;;;;6.89;67.47;99777.59;5126699;28;20063;-58
2021/12/05 02:09:17;;;;;;;8.40;2.45;;;;;;;6.85;67.28;99771.88;5117228;28;20043;-58
2021/12/05 02:12:06;;;;;;;10.88;3.13;;;;;;;6.84;67.00;99763.03;5124918;28;20073;-58
2021/12/05 02:34:43;;;;;;;9.82;3.08;;;;;;;6.83;67.61;99760.59;4983585;28;20065;-58
2021/12/05 02:37:29;;;;;;;6.63;2.65;;;;;;;6.83;67.27;99748.06;4983411;28;20452;-58
2021/12/05 02:43:08;;;;;;;10.45;3.00;;;;;;;6.84;66.97;99746.22;5100136;27;20400;-60
2021/12/05 02:45:39;;;;;;;9.23;2.28;;;;;;;6.80;67.51;99743.16;5087065;28;20053;-59
2021/12/05 02:48:08;;;;;;;6.80;2.78;;;;;;;6.83;67.02;99739.25;5091280;28;20059;-59
2021/12/05 02:50:38;;;;;;;6.68;2.65;;;;;;;6.84;67.00;99738.19;5089548;28;20110;-59
2021/12/05 02:53:14;;;;;;;9.40;3.40;;;;;;;6.83;67.20;99744.56;5081958;28;20040;-57
2021/12/05 02:55:44;;;;;;;;;;;;;;;6.81;67.33;99747.47;5098788;28;20049;-57
2021/12/05 02:58:23;;;;;;;5.75;2.25;;;;;;;6.81;67.06;99741.31;5087186;28;19944;-57
2021/12/05 03:01:09;;;;;;;11.93;4.45;;;;;;;6.80;67.42;99748.50;5087315;28;20049;-58
2021/12/05 03:03:37;;;;;;;9.45;2.38;;;;;;;6.81;67.13;99757.34;5090062;28;20160;-58
2021/12/05 03:06:12;;;;;;;6.35;2.53;;;;;;;6.79;67.09;99746.06;5093584;28;20044;-58
2021/12/05 03:08:40;;;;;;;11.43;2.70;;;;;;;6.80;67.08;99745.03;5081558;28;20057;-58
2021/12/05 03:11:08;;;;;;;9.38;2.30;;;;;;;6.79;66.78;99746.06;5079468;28;20474;-57
2021/12/05 03:13:40;;;;;;;10.80;2.92;;;;;;;6.77;67.30;99742.81;5084356;28;20064;-57
2021/12/05 03:16:09;;;;;;;12.68;2.45;;;;;;;6.77;67.48;99745.47;5075270;28;20049;-57
2021/12/05 03:18:38;;;;;;;6.78;2.50;;;;;;;6.78;67.43;99744.44;5080912;28;20049;-57
2021/12/05 03:21:07;;;;;;;8.82;2.63;;;;;;;6.78;67.43;99747.09;5093603;28;20044;-59
2021/12/05 03:23:36;;;;;;;7.95;2.70;;;;;;;6.77;67.44;99738.28;5085446;28;20112;-59
2021/12/05 03:26:07;;;;;;;6.03;2.45;;;;;;;6.77;67.01;99740.94;5079992;28;20049;-58
2021/12/05 03:28:35;;;;;;;8.80;2.55;;;;;;;6.80;67.13;99742.34;5080901;28;20048;-57
2021/12/05 03:31:05;;;;;;;8.68;2.08;;;;;;;6.78;67.21;99731.91;5082177;28;20040;-57
2021/12/05 03:33:35;;;;;;;6.50;2.40;;;;;;;6.76;67.10;99731.31;5090075;28;20080;-57
2021/12/05 03:36:04;;;;;;;10.38;3.30;;;;;;;6.74;67.65;99725.38;5079931;28;20063;-57
2021/12/05 03:38:32;;;;;;;5.43;2.03;;;;;;;6.76;67.17;99733.16;5081990;28;20075;-57
2021/12/05 03:41:00;;;;;;;6.60;2.40;;;;;;;6.78;67.33;99725.75;5080062;28;20486;-57
2021/12/05 03:43:27;;;;;;;7.05;2.50;;;;;;;6.76;67.39;99736.66;5089968;28;20059;-56
2021/12/05 03:45:57;;;;;;;7.97;2.40;;;;;;;6.77;67.19;99732.13;5086859;28;20063;-57
2021/12/05 03:48:29;;;;;;;7.57;2.83;;;;;;;6.75;67.55;99732.34;5087418;28;20049;-58
2021/12/05 03:50:59;;;;;;;7.53;3.25;;;;;;;6.77;67.58;99730.28;5086936;28;20102;-57
2021/12/05 03:53:27;;;;;;;4.97;1.70;;;;;;;6.76;67.39;99728.63;5082300;28;20134;-56
2021/12/05 03:55:58;;;;;;;8.07;2.17;;;;;;;6.76;67.49;99730.50;5066581;28;20486;-56
2021/12/05 03:58:28;;;;;;;4.97;1.73;;;;;;;6.75;67.28;99731.53;5071964;28;20053;-57
2021/12/05 04:00:59;;;;;;;8.57;2.47;;;;;;;6.73;67.77;99730.94;5061970;28;20049;-57
2021/12/05 04:03:31;;;;;;;8.07;1.95;;;;;;;6.75;67.48;99742.22;5067959;28;20455;-57
2021/12/05 04:06:01;;;;;;;7.55;1.95;;;;;;;6.74;67.46;99732.56;5071343;28;20084;-57
2021/12/05 04:08:30;;;;;;;3.88;1.75;;;;;;;6.75;67.48;99736.88;5077221;28;20048;-57
2021/12/05 04:11:04;;;;;;;6.50;1.90;;;;;;;6.74;67.65;99732.56;5059781;28;20037;-57
2021/12/05 04:13:32;;;;;;;8.00;1.88;;;;;;;6.74;67.07;99730.72;5066168;28;20102;-57
2021/12/05 04:16:02;;;;;;;9.35;2.85;;;;;;;6.75;67.23;99737.69;5078077;28;20053;-57
2021/12/05 04:18:31;;;;;;;6.40;2.08;;;;;;;6.74;67.58;99735.25;5077480;28;20044;-58
2021/12/05 04:21:00;;;;;;;7.85;2.10;;;;;;;6.76;67.32;99731.31;5078789;28;20108;-57
2021/12/05 04:23:29;;;;;;;6.75;2.72;;;;;;;6.79;67.65;99740.72;5076698;28;20063;-57
2021/12/05 04:25:57;;;;;;;4.43;1.95;;;;;;;6.78;67.47;99737.25;5056865;28;20079;-56
2021/12/05 04:28:25;;;;;;;5.95;2.28;;;;;;;6.79;67.27;99740.72;5070899;28;20076;-58
2021/12/05 04:30:55;;;;;;;5.07;1.77;;;;;;;6.79;67.60;99728.19;5079366;28;20117;-57
2021/12/05 04:33:23;;;;;;;5.78;2.40;;;;;;;6.80;67.55;99735.16;5073033;28;20040;-56
2021/12/05 04:35:53;;;;;;;5.25;2.03;;;;;;;6.81;67.49;99730.63;5071307;28;20368;-57
2021/12/05 04:38:20;;;;;;;5.03;2.20;;;;;;;6.84;67.33;99733.66;5065915;28;20119;-57
2021/12/05 04:40:49;;;;;;;6.38;1.95;;;;;;;6.81;67.29;99741.31;5063537;28;20080;-57
2021/12/05 04:43:17;;;;;;;5.22;1.90;;;;;;;6.82;67.05;99738.41;5073669;28;20053;-57
2021/12/05 04:45:45;;;;;;;6.53;2.53;;;;;;;6.83;67.48;99734.72;5063015;28;20056;-57
2021/12/05 04:48:13;;;;;;;4.30;1.52;;;;;;;6.81;67.58;99736.78;5072584;28;20120;-58
2021/12/05 04:50:42;;;;;;;3.35;2.00;;;;;;;6.81;67.65;99744.81;5076940;28;20068;-56
2021/12/05 04:53:11;;;;;;;5.10;1.60;;;;;;;6.82;67.39;99742.94;5069681;28;20109;-56
2021/12/05 04:55:39;;;;;;;3.20;1.65;;;;;;;6.82;67.58;99737.59;5068551;28;20045;-57
2021/12/05 04:58:07;;;;;;;3.85;1.45;;;;;;;6.81;67.94;99738.66;5079004;28;20048;-57
2021/12/05 05:00:42;;;;;;;6.82;1.92;;;;;;;6.79;67.85;99732.72;5065023;28;20052;-57
2021/12/05 05:03:12;;;;;;;3.38;1.65;;;;;;;6.80;67.83;99745.84;5064944;28;20076;-57
2021/12/05 05:05:47;;;;;;;5.22;1.80;;;;;;;6.78;67.83;99736.44;5063370;28;20048;-58
2021/12/05 05:08:18;;;;;;;6.13;1.52;;;;;;;6.76;67.93;99735.84;5073187;28;20048;-57
2021/12/05 05:10:46;;;;;;;3.53;1.40;;;;;;;6.79;67.56;99735.38;5070530;28;20060;-58
2021/12/05 05:13:14;;;;;;;5.00;1.63;;;;;;;6.76;68.14;99735.84;5081799;28;20067;-57
2021/12/05 05:15:42;;;;;;;5.95;1.80;;;;;;;6.78;67.58;99742.59;5077316;28;20053;-57
2021/12/05 05:18:11;;;;;;;5.53;1.48;;;;;;;6.78;67.69;99744.44;5075031;28;20072;-57
2021/12/05 05:20:45;;;;;;;5.85;1.75;;;;;;;6.75;67.70;99740.34;5068596;28;20045;-57
2021/12/05 05:23:26;;;;;;;6.05;1.80;;;;;;;6.76;67.80;99742.00;5065131;28;20091;-57
2021/12/05 05:45:32;;;;;;;3.60;1.40;;;;;;;6.75;68.11;99769.72;5007258;28;20050;-57
2021/12/05 05:48:27;;;;;;;3.75;1.65;;;;;;;6.74;67.75;99768.09;5011659;28;20092;-58
2021/12/05 05:50:55;;;;;;;3.08;1.90;;;;;;;6.74;67.73;99760.09;5001763;28;20070;-57
2021/12/05 05:53:23;;;;;;;1.83;1.17;;;;;;;6.73;68.13;99771.81;5006244;28;20084;-57
2021/12/05 05:55:53;;;;;;;7.25;1.85;;;;;;;6.73;67.93;99774.47;5008456;28;20061;-57
2021/12/05 05:58:26;;;;;;;2.67;1.33;;;;;;;6.72;68.09;99777.38;5002846;28;20050;-57
2021/12/05 06:01:02;;;;;;;3.05;1.40;;;;;;;6.73;67.95;99779.00;5001077;28;20166;-57
2021/12/05 06:03:32;;;;;;;2.67;1.02;;;;;;;6.71;67.81;99773.88;5008174;28;20046;-57
2021/12/05 06:06:06;;;;;;;3.30;1.42;;;;;;;6.71;67.87;99768.53;5028350;28;20068;-58
2021/12/05 06:08:36;;;;;;;4.03;1.10;;;;;;;6.72;67.71;99780.84;5064576;28;20045;-57
2021/12/05 06:11:06;;;;;;;4.85;1.40;;;;;;;6.73;67.98;99777.16;5066615;28;20060;-57
2021/12/05 06:13:37;;;;;;;5.05;2.72;;;;;;;6.73;68.27;99781.66;5075652;28;20041;-57
2021/12/05 06:16:07;;;;;;;3.75;1.38;;;;;;;6.74;67.79;99777.97;5062573;28;20079;-57
2021/12/05 06:18:35;;;;;;;5.28;1.33;;;;;;;6.74;68.28;99791.31;5077575;28;20497;-57
2021/12/05 06:21:05;;;;;;;2.25;1.08;;;;;;;6.76;67.85;99791.91;4710621;28;10000015;-56
2021/12/05 06:23:33;;;;;;;2.85;1.23;;;;;;;6.74;68.02;99788.63;5067602;28;20045;-57
2021/12/05 06:26:02;;;;;;;3.53;1.13;;;;;;;6.74;68.00;99788.63;5062054;28;20049;-57
2021/12/05 06:28:34;;;;;;;4.18;1.20;;;;;;;6.76;68.12;99786.56;5074909;28;20080;-58
2021/12/05 06:31:15;;;;;;;2.95;1.52;;;;;;;6.77;67.96;99783.66;5071369;28;20052;-57
2021/12/05 06:36:56;;;;;;;2.60;1.00;;;;;;;6.90;67.48;99789.91;5071941;28;20076;-57
2021/12/05 06:39:29;;;;;;;1.98;1.15;;;;;;;7.07;67.32;99794.38;5061885;28;20164;-58
2021/12/05 06:42:09;;;;;;;1.70;1.13;;;;;;;7.23;66.72;99797.47;5062796;28;20084;-58
2021/12/05 06:47:26;;;;;;;1.90;1.00;;;;;;;7.53;65.67;99810.84;5046682;28;20108;-59
2021/12/05 06:49:55;;;;;;;1.65;1.13;;;;;;;7.73;65.10;99804.16;5064949;28;20686;-60
2021/12/05 06:52:41;;;;;;;3.15;1.10;;;;;;;7.89;64.40;99804.53;5061721;28;20537;-59
2021/12/05 06:55:09;;;;;;;2.05;1.20;;;;;;;8.06;64.17;99817.03;5056056;28;20076;-59
2021/12/05 06:57:37;;;;;;;5.50;1.10;;;;;;;8.13;63.21;99809.69;5053399;28;20305;-60
2021/12/05 07:00:07;;;;;;;3.72;1.30;;;;;;;8.26;62.67;99807.84;5063042;28;20092;-60
2021/12/05 07:02:36;;;;;;;2.28;0.98;;;;;;;8.34;62.31;99820.91;5061485;28;20045;-59
2021/12/05 07:08:02;;;;;;;2.88;1.35;;;;;;;8.15;63.84;99829.03;5010995;28;20042;-60
2021/12/05 07:10:35;;;;;;;2.72;1.13;;;;;;;8.05;63.82;99838.66;5014694;28;20491;-59
2021/12/05 07:15:48;;;;;;;1.75;1.10;;;;;;;7.83;64.56;99849.06;5005872;28;20058;-60
2021/12/05 07:21:25;;;;;;;1.90;1.00;;;;;;;7.93;64.60;99848.53;5013783;28;20054;-61
2021/12/05 07:24:02;;;;;;;3.28;1.48;;;;;;;8.03;64.17;99846.91;5017060;28;20046;-61
2021/12/05 07:26:46;;;;;;;;;;;;;;;8.15;64.21;99852.28;5017513;28;20088;-62
2021/12/05 07:40:24;;;;;;;3.28;1.10;;;;;;;8.03;63.97;99864.84;5017193;28;20093;-61
2021/12/05 07:42:52;;;;;;;2.45;0.98;;;;;;;7.86;64.89;99867.34;5052781;28;20057;-62
2021/12/05 07:45:29;;;;;;;2.28;1.33;;;;;;;7.75;65.46;99870.78;5065061;28;20045;-61
2021/12/05 07:47:59;;;;;;;4.47;1.13;;;;;;;7.66;65.82;99872.97;5075003;28;20060;-61
2021/12/05 07:50:43;;;;;;;1.27;0.90;;;;;;;7.60;66.09;99875.72;5065974;28;20045;-60
2021/12/05 07:53:19;;;;;;;3.75;1.20;;;;;;;7.54;66.08;99880.13;5066762;28;20068;-61
2021/12/05 07:55:49;;;;;;;2.63;1.10;;;;;;;7.53;66.01;99885.69;5066998;28;20045;-59
2021/12/05 07:58:33;;;;;;;2.85;1.05;;;;;;;7.48;66.84;99886.38;5063210;28;20053;-60
2021/12/05 08:01:17;;;;;;;2.42;1.13;;;;;;;7.41;67.05;99890.97;5064586;28;20060;-61
2021/12/05 08:15:12;;;;;;;2.03;1.13;;;;;;;7.27;67.27;99909.03;4972740;28;20089;-60
2021/12/05 08:17:40;;;;;;;2.25;1.20;;;;;;;7.27;67.12;99916.22;4967533;28;20234;-61
2021/12/05 08:20:12;;;;;;;2.22;1.15;;;;;;;7.23;67.71;99915.06;4967301;28;20323;-61
2021/12/05 08:22:41;;;;;;;2.95;1.30;;;;;;;7.23;67.42;99921.22;4966011;28;20082;-61
2021/12/05 08:25:11;;;;;;;2.97;1.45;;;;;;;7.23;67.73;99921.22;4964013;28;20078;-63
2021/12/05 08:27:42;;;;;;;2.05;1.00;;;;;;;7.21;67.38;99922.47;4972644;28;20082;-61
2021/12/05 08:30:17;;;;;;;3.13;1.58;;;;;;;7.20;67.57;99921.66;4963460;29;20079;-61
2021/12/05 08:32:58;;;;;;;4.63;1.20;;;;;;;7.19;67.65;99922.69;4968330;28;20203;-61
2021/12/05 08:36:04;;;;;;;1.05;0.95;;;;;;;7.17;67.67;99930.94;4970171;28;20117;-63
2021/12/05 08:39:10;;;;;;;2.42;1.20;;;;;;;7.19;67.50;99934.19;4965447;28;20063;-62
2021/12/05 09:23:45;;;;;;;1.45;1.10;;;;;;;7.08;68.34;99983.03;5021644;28;20053;-63
2021/12/05 09:29:26;;;;;;;1.98;1.30;;;;;;;7.05;68.15;99988.00;5019900;28;20520;-63
2021/12/05 09:40:29;;;;;;;2.25;1.13;;;;;;;7.05;68.27;100014.72;5021310;28;20074;-63
2021/12/05 09:51:53;;;;;;;4.00;1.10;;;;;;;7.02;68.73;100029.31;5020561;28;20050;-63
2021/12/05 10:02:45;;;;;;;1.73;0.95;;;;;;;7.03;68.41;100033.63;5054409;28;20442;-63
2021/12/05 10:10:55;;;;;;;3.10;1.30;;;;;;;7.08;68.58;100039.13;5073863;28;20138;-64
2021/12/05 10:13:31;;;;;;;1.20;1.05;;;;;;;7.11;68.48;100044.03;5067012;28;20045;-63
2021/12/05 10:16:12;;;;;;;2.13;1.35;;;;;;;7.12;68.13;100047.53;5061749;28;20104;-62
2021/12/05 10:36:05;;;;;;;2.15;1.42;;;;;;;7.12;68.10;100069.72;5062800;28;20049;-63
2021/12/05 10:38:42;;;;;;;1.92;1.20;;;;;;;7.11;68.23;100077.94;5062905;28;20052;-63
2021/12/05 10:41:46;;;;;;;2.35;1.33;;;;;;;7.11;68.54;100068.09;5061631;28;20061;-62
2021/12/05 10:44:16;;;;;;;1.10;1.05;;;;;;;7.15;68.05;100073.81;5062687;28;20056;-62
2021/12/05 10:46:49;;;;;;;2.13;1.05;;;;;;;7.15;68.45;100084.50;5062444;28;20088;-62
2021/12/05 10:49:18;;;;;;;2.25;1.17;;;;;;;7.15;68.15;100087.16;5063072;28;20104;-62
2021/12/05 10:51:51;;;;;;;1.30;0.98;;;;;;;7.14;68.15;100085.53;5057767;28;20075;-62
2021/12/05 10:54:21;;;;;;;1.30;1.20;;;;;;;7.12;68.71;100079.59;5049503;28;20068;-62
2021/12/05 10:56:54;;;;;;;1.75;1.10;;;;;;;7.12;68.71;100083.06;5063746;28;20450;-67
2021/12/05 10:59:25;;;;;;;1.48;0.98;;;;;;;7.14;68.61;100086.34;5064665;28;20045;-64
2021/12/05 11:01:55;;;;;;;1.42;1.00;;;;;;;7.24;68.13;100082.38;4710946;28;10000395;-64
2021/12/05 11:04:26;;;;;;;2.72;1.20;;;;;;;7.38;68.25;100092.72;5053918;28;20045;-63
2021/12/05 11:06:57;;;;;;;3.30;1.27;;;;;;;7.51;67.16;100091.78;5063490;28;20682;-63
2021/12/05 11:09:26;;;;;;;1.77;1.05;;;;;;;7.66;66.67;100092.25;5070823;28;20099;-63
2021/12/05 11:12:00;;;;;;;43.45;6.40;;;;;;;7.80;66.42;100092.94;5062744;28;20075;-65
2021/12/05 11:14:32;;;;;;;1.73;1.20;;;;;;;7.98;65.90;100089.44;5058236;28;20048;-63
2021/12/05 11:17:04;;;;;;;4.85;1.63;;;;;;;8.15;64.93;100088.63;5057725;28;20072;-64
2021/12/05 11:19:36;;;;;;;2.00;1.10;;;;;;;8.34;64.50;100091.31;5063409;28;20080;-65
2021/12/05 11:22:16;;;;;;;2.15;0.88;;;;;;;8.44;64.36;100092.41;5048286;28;20050;-64
2021/12/05 11:24:48;;;;;;;2.33;1.10;;;;;;;8.54;64.04;100101.75;5050923;28;20056;-64
2021/12/05 11:27:25;;;;;;;3.75;1.17;;;;;;;8.64;64.20;100088.63;5069104;28;20084;-64
2021/12/05 11:30:10;;;;;;;2.85;1.50;;;;;;;8.76;63.46;100090.28;5054472;28;20050;-62
2021/12/05 11:32:42;;;;;;;0.73;0.73;;;;;;;8.87;62.62;100098.59;5071339;28;20079;-64
2021/12/05 11:35:31;;;;;;;2.15;1.38;;;;;;;8.97;62.68;100098.84;5060411;28;20048;-66
2021/12/05 11:38:10;;;;;;;2.63;0.90;;;;;;;9.03;62.37;100098.75;5056478;28;20059;-67
2021/12/05 11:40:54;;;;;;;2.92;1.30;;;;;;;9.13;61.96;100100.84;5056713;28;20160;-67
2021/12/05 11:43:25;;;;;;;1.75;1.10;;;;;;;9.15;61.50;100090.72;5061036;28;20148;-62
2021/12/05 11:45:59;;;;;;;1.67;1.10;;;;;;;9.28;61.99;100113.81;5061153;28;20076;-64
2021/12/05 11:48:30;;;;;;;2.00;1.10;;;;;;;9.28;61.79;100111.13;5062119;28;20052;-64
2021/12/05 11:50:59;;;;;;;5.88;1.35;;;;;;;9.36;60.90;100116.16;5062266;28;20087;-64
2021/12/05 11:53:42;;;;;;;2.78;1.52;;;;;;;9.39;60.72;100121.88;5067790;28;20049;-64
2021/12/05 11:56:16;;;;;;;1.67;0.90;;;;;;;9.34;61.36;100124.44;5074117;28;20113;-64
2021/12/05 11:58:44;;;;;;;2.20;1.05;;;;;;;9.22;61.92;100122.78;5065361;28;20050;-65
2021/12/05 12:01:14;;;;;;;1.42;1.00;;;;;;;9.05;62.18;100133.34;5067646;28;20136;-63
2021/12/05 12:03:42;;;;;;;2.15;1.42;;;;;;;8.82;62.31;100128.75;5077192;28;20132;-62
2021/12/05 12:06:11;;;;;;;1.25;1.05;;;;;;;8.66;63.04;100135.59;5069203;28;20080;-64
2021/12/05 12:08:40;;;;;;;2.05;1.30;;;;;;;8.52;64.37;100138.66;5060121;28;20045;-60
2021/12/05 12:11:08;;;;;;;2.50;1.50;;;;;;;8.42;64.29;100148.03;5054311;28;20084;-62
2021/12/05 12:13:38;;;;;;;2.05;1.30;;;;;;;8.29;64.48;100132.09;5061525;28;20149;-62
2021/12/05 12:16:08;;;;;;;2.23;1.50;;;;;;;8.28;65.34;100157.25;4708042;28;10000622;-62
2021/12/05 12:18:39;;;;;;;1.48;1.38;;;;;;;8.22;65.71;100149.28;5062707;28;20063;-63
2021/12/05 12:21:11;;;;;;;1.58;1.45;;;;;;;8.16;64.95;100145.66;5063216;28;20103;-62
2021/12/05 12:23:42;;;;;;;2.63;1.50;;;;;;;8.10;66.12;100149.22;5069855;28;20045;-62
2021/12/05 12:26:12;;;;;;;1.85;1.50;;;;;;;8.09;66.19;100153.75;5066221;28;20045;-64
2021/12/05 12:28:40;;;;;;;2.13;1.30;;;;;;;8.05;65.64;100147.19;5067077;28;20053;-62
2021/12/05 12:31:12;;;;;;;1.55;1.38;;;;;;;8.02;65.50;100150.31;5061258;28;20050;-60
2021/12/05 12:33:47;;;;;;;1.95;1.42;;;;;;;8.00;65.92;100146.22;5068124;28;20113;-62
2021/12/05 12:36:15;;;;;;;2.05;1.55;;;;;;;7.94;66.07;100160.50;5063906;28;20083;-61
2021/12/05 12:38:45;;;;;;;2.22;1.48;;;;;;;7.91;65.99;100155.59;5064404;28;20044;-61
2021/12/05 12:41:17;;;;;;;4.47;1.85;;;;;;;7.88;65.81;100162.19;5056841;28;20059;-61
2021/12/05 12:43:49;;;;;;;3.85;2.35;;;;;;;7.87;66.75;100162.41;5062931;28;20071;-61
2021/12/05 12:46:21;;;;;;;5.55;1.88;;;;;;;7.85;66.79;100165.31;5073924;28;20048;-61
2021/12/05 12:48:51;;;;;;;1.80;1.50;;;;;;;7.85;66.90;100168.00;5068666;28;20135;-61
2021/12/05 12:51:29;;;;;;;3.47;1.80;;;;;;;7.85;67.04;100168.00;5062695;28;20219;-61
2021/12/05 12:54:02;;;;;;;4.95;2.15;;;;;;;7.83;66.87;100165.53;5066466;28;20076;-64
2021/12/05 12:56:31;;;;;;;2.55;1.70;;;;;;;7.81;66.71;100172.16;5057467;28;20048;-62
2021/12/05 12:59:05;;;;;;;9.55;2.67;;;;;;;7.78;66.77;100170.72;5069974;28;20104;-61
2021/12/05 13:02:01;;;;;;;4.35;1.63;;;;;;;7.78;67.30;100173.41;5074794;28;20064;-62
2021/12/05 13:05:02;;;;;;;2.95;1.73;;;;;;;7.76;67.24;100182.69;5072060;28;20044;-62
2021/12/05 13:10:26;;;;;;;2.67;1.80;;;;;;;7.92;66.62;100182.13;5060316;28;20044;-60
2021/12/05 13:12:59;;;;;;;2.47;1.60;;;;;;;8.05;65.67;100186.53;5066900;28;20048;-62
2021/12/05 13:15:35;;;;;;;3.03;2.00;;;;;;;8.21;65.94;100193.16;5062764;28;20046;-62
2021/12/05 13:18:06;;;;;;;2.10;1.52;;;;;;;8.34;64.81;100196.53;5070624;28;20057;-62
2021/12/05 13:20:52;;;;;;;1.92;1.50;;;;;;;8.54;64.17;100200.84;5075312;28;20044;-62
2021/12/05 13:23:27;;;;;;;2.55;1.75;;;;;;;8.63;63.59;100197.63;5065302;28;20048;-62
2021/12/05 13:26:26;;;;;;;1.75;1.63;;;;;;;8.78;63.45;100199.91;5063883;28;20179;-62
2021/12/05 13:28:57;;;;;;;2.03;1.65;;;;;;;8.92;62.70;100196.00;5054831;28;20075;-61
2021/12/05 13:31:49;;;;;;;2.90;1.60;;;;;;;9.10;62.44;100203.19;5066711;28;20044;-61
2021/12/05 13:34:44;;;;;;;2.88;1.83;;;;;;;9.23;62.14;100204.84;5069109;28;20144;-61
2021/12/05 13:37:30;;;;;;;2.42;1.60;;;;;;;9.38;60.79;100208.75;5064219;28;20036;-62
2021/12/05 13:40:24;;;;;;;2.67;1.80;;;;;;;9.46;61.00;100221.00;5055225;28;20141;-62
2021/12/05 13:42:55;;;;;;;2.67;1.60;;;;;;;9.46;60.38;100215.66;5070840;28;20366;-63
2021/12/05 13:45:31;;;;;;;2.30;1.42;;;;;;;9.46;61.14;100223.69;5069819;28;20155;-62
2021/12/05 13:48:17;;;;;;;2.70;1.73;;;;;;;9.31;61.59;100224.13;5067467;28;20087;-63
2021/12/05 13:50:48;;;;;;;2.88;1.70;;;;;;;9.10;62.26;100233.47;5063877;28;20048;-62
2021/12/05 13:53:20;;;;;;;1.70;1.58;;;;;;;8.91;62.69;100234.56;5055489;28;20140;-62
2021/12/05 13:55:58;;;;;;;2.03;1.50;;;;;;;8.78;63.33;100238.22;5066176;28;20045;-62
2021/12/05 13:58:36;;;;;;;1.65;1.55;;;;;;;8.72;62.93;100243.66;5058061;28;20044;-60
2021/12/05 14:01:07;;;;;;;2.17;1.90;;;;;;;8.67;63.26;100240.84;5066267;28;20081;-62
2021/12/05 14:03:55;;;;;;;3.40;2.08;;;;;;;8.60;63.10;100248.16;5064678;28;20077;-62
2021/12/05 14:06:47;;;;;;;3.13;2.10;;;;;;;8.54;64.01;100247.19;5061812;28;20055;-61
2021/12/05 14:09:18;;;;;;;2.83;1.98;;;;;;;8.48;63.57;100256.13;5045167;28;20080;-64
2021/12/05 14:11:50;;;;;;;3.03;2.15;;;;;;;8.43;64.16;100259.47;5052278;28;20041;-63
2021/12/05 14:14:21;;;;;;;3.15;2.10;;;;;;;8.40;64.57;100259.09;5069856;28;20475;-62
2021/12/05 14:16:51;;;;;;;2.80;2.10;;;;;;;8.34;64.40;100265.34;5067563;28;20048;-61
2021/12/05 14:19:25;;;;;;;3.20;2.47;;;;;;;8.28;64.62;100271.53;5058080;28;20052;-61
2021/12/05 14:21:56;;;;;;;6.07;2.85;;;;;;;8.26;64.96;100273.63;5074420;28;20044;-61
2021/12/05 14:24:29;;;;;;;3.15;2.30;;;;;;;8.26;64.60;100277.13;5065126;28;20422;-61
2021/12/05 14:27:00;;;;;;;3.45;2.15;;;;;;;8.23;64.92;100271.38;5065109;28;20067;-60
2021/12/05 14:29:33;;;;;;;3.45;2.38;;;;;;;8.21;64.75;100278.81;5059942;28;20087;-60
2021/12/05 14:32:07;;;;;;;2.35;2.08;;;;;;;8.16;65.31;100288.31;5065093;28;20048;-61
2021/12/05 14:34:35;;;;;;;3.95;2.50;;;;;;;8.13;65.47;100293.28;5063434;28;20448;-61
2021/12/05 14:37:06;;;;;;;3.20;2.40;;;;;;;8.10;65.37;100297.22;5066458;28;20190;-66
2021/12/05 14:39:36;;;;;;;3.53;2.55;;;;;;;8.08;66.16;100295.81;5065709;28;20040;-64
2021/12/05 14:42:07;;;;;;;2.75;2.33;;;;;;;8.05;65.89;100306.94;5060875;28;20049;-63
2021/12/05 14:44:38;;;;;;;3.20;2.30;;;;;;;8.05;65.71;100310.44;5068586;28;20068;-62
2021/12/05 14:47:08;;;;;;;3.63;2.42;;;;;;;8.19;65.26;100321.03;5065907;28;20088;-64
2021/12/05 14:49:38;;;;;;;3.90;2.72;;;;;;;8.31;64.51;100317.44;5058907;28;20052;-61
2021/12/05 14:52:09;;;;;;;3.38;2.40;;;;;;;8.46;63.76;100330.50;5056719;28;20049;-62
2021/12/05 14:54:40;;;;;;;2.75;2.30;;;;;;;8.56;63.93;100338.03;5068640;28;20052;-62
2021/12/05 14:57:12;;;;;;;2.67;2.15;;;;;;;8.73;63.29;100345.25;5067605;28;20056;-61
2021/12/05 14:59:43;;;;;;;3.97;2.42;;;;;;;8.85;62.94;100341.81;5066476;28;20056;-60
2021/12/05 15:02:12;;;;;;;3.78;2.22;;;;;;;8.99;63.04;100337.97;5057074;28;20072;-60
2021/12/05 15:04:44;;;;;;;4.13;2.47;;;;;;;9.10;62.20;100346.06;5066847;28;20048;-60
2021/12/05 15:07:12;;;;;;;2.75;2.25;;;;;;;9.07;62.11;100346.53;5068175;28;20143;-60
2021/12/05 15:09:42;;;;;;;3.30;2.60;;;;;;;9.01;62.46;100357.31;5055225;28;20164;-61
2021/12/05 15:12:16;;;;;;;3.10;2.10;;;;;;;8.88;62.67;100363.63;5063506;28;20049;-61
2021/12/05 15:14:47;;;;;;;4.65;2.35;;;;;;;8.72;63.39;100366.91;5064309;28;20064;-61
2021/12/05 15:17:18;;;;;;;5.28;2.50;;;;;;;8.59;63.39;100367.88;4356522;28;10000788;-62
2021/12/05 15:19:48;;;;;;;5.55;2.33;;;;;;;8.46;63.96;100371.50;5065737;28;20328;-61
2021/12/05 15:22:36;;;;;;;3.58;2.92;;;;;;;8.38;64.86;100377.13;5058156;28;20064;-61
2021/12/05 15:25:07;;;;;;;3.33;2.15;;;;;;;8.34;64.43;100383.97;5059331;28;20052;-62
2021/12/05 15:27:37;;;;;;;4.00;2.83;;;;;;;8.31;64.35;100392.38;5057570;28;20060;-60
2021/12/05 15:30:11;;;;;;;6.18;2.88;;;;;;;8.26;64.67;100399.44;5054600;28;20103;-63
2021/12/05 15:32:40;;;;;;;3.60;2.28;;;;;;;8.21;64.86;100405.44;5058750;28;20056;-61
2021/12/05 15:35:11;;;;;;;7.38;2.70;;;;;;;8.22;64.79;100399.06;5059646;28;20053;-60
2021/12/05 15:37:47;;;;;;;6.43;3.30;;;;;;;8.20;64.38;100411.84;5065185;28;20076;-61
2021/12/05 15:40:15;;;;;;;4.63;2.42;;;;;;;8.28;65.27;100416.91;5057181;28;20056;-60
2021/12/05 15:42:43;;;;;;;6.28;2.78;;;;;;;8.42;64.98;100425.72;5058203;28;20060;-62
2021/12/05 15:45:16;;;;;;;5.13;2.60;;;;;;;8.58;64.18;100425.16;5059888;28;20092;-64
2021/12/05 15:47:46;;;;;;;3.22;2.40;;;;;;;8.74;63.65;100432.63;5045625;28;20529;-61
2021/12/05 15:50:16;;;;;;;3.45;2.40;;;;;;;8.89;62.70;100434.94;5069602;28;20049;-61
2021/12/05 15:52:47;;;;;;;3.13;2.20;;;;;;;8.98;62.80;100446.22;5060807;28;20059;-62
2021/12/05 15:55:19;;;;;;;4.22;2.65;;;;;;;8.94;61.86;100448.50;5057183;28;20048;-61
2021/12/05 15:57:49;;;;;;;3.53;2.40;;;;;;;8.85;63.09;100447.16;5061686;28;20084;-61
2021/12/05 16:00:22;;;;;;;3.17;2.50;;;;;;;8.73;63.09;100452.41;5061784;28;20475;-63
2021/12/05 16:02:57;;;;;;;5.20;3.33;;;;;;;8.61;63.12;100453.38;5045599;28;20152;-64
2021/12/05 16:05:26;;;;;;;3.72;2.58;;;;;;;8.53;63.63;100461.69;5054721;28;20049;-62
2021/12/05 16:08:02;;;;;;;4.55;3.03;;;;;;;8.44;63.91;100467.28;4708864;28;9999956;-62